Sea Thames — V2BV1 — position and weather

sailwx.info

Track history (hours):
 
Tides and Currents Weather Stations Pressure Air Temp Water Temp Dewpoint Dewpoint Depression Visibility Wind Speed Wind Dir Waves Ship Positions

Sea Thames

Last reported at 2014-Jul-20 09:29 UTC. Time now 2014-Jul-24 08:27 UTC.
Position N 53°13' E 007°27'.

Length 87 m; draft 2.8 m.

Type: Ship. MMSI: 304933000.

Date/timePositionNaut miles runAvg speedWind from/ knotsBaromVisibWave heightAir tempDewpointWater temp
2014-Jul-20 09:29N 53°13' E 007°27'0 0.0
2014-Jul-20 07:19N 53°13' E 007°27'0 0.0
2014-Jul-19 15:28N 53°13' E 007°27'0 0.0
2014-Jul-19 14:07N 53°13' E 007°27'0 0.0
2014-Jul-19 13:31N 53°13' E 007°27'0 0.0
2014-Jul-19 12:28N 53°13' E 007°27'0 0.0
2014-Jul-19 11:22N 53°13' E 007°27'0 0.0
2014-Jul-19 09:16N 53°13' E 007°27'0 0.0
2014-Jul-19 08:28N 53°13' E 007°27'0 0.0
2014-Jul-19 07:28N 53°13' E 007°27'0 0.0
2014-Jul-19 06:31N 53°13' E 007°27'0 0.0
2014-Jul-19 04:31N 53°13' E 007°27'0 0.0
2014-Jul-19 03:31N 53°13' E 007°27'0 0.0
2014-Jul-19 02:28N 53°13' E 007°27'0 0.0
2014-Jul-19 01:25N 53°13' E 007°27'0 0.0
2014-Jul-19 00:31N 53°13' E 007°27'0 0.0
2014-Jul-18 23:31N 53°13' E 007°27'0 0.0
2014-Jul-18 22:10N 53°13' E 007°27'0 0.0
2014-Jul-18 21:31N 53°13' E 007°27'0 0.0
2014-Jul-18 20:19N 53°13' E 007°27'0 0.0
2014-Jul-18 08:31N 53°13' E 007°27'0 0.0
2014-Jul-18 06:31N 53°13' E 007°27'0 0.0
2014-Jul-18 03:10N 53°13' E 007°27'0 0.0
2014-Jul-18 02:24N 53°13' E 007°27'0 0.0
2014-Jul-18 01:32N 53°13' E 007°27'0 0.0
2014-Jul-18 00:33N 53°13' E 007°27'0 0.0
2014-Jul-17 23:34N 53°13' E 007°27'0 0.0
2014-Jul-17 22:33N 53°13' E 007°27'0 0.0
2014-Jul-17 21:33N 53°13' E 007°27'0 0.0
2014-Jul-17 17:22N 53°13' E 007°27'2 0.8
2014-Jul-17 14:21N 53°14' E 007°24'6 7.9
2014-Jul-17 13:34N 53°19' E 007°18'9 9.2
2014-Jul-17 12:34N 53°19' E 007°03'0 0.5
2014-Jul-17 11:31N 53°19' E 007°02'0 0.0
2014-Jul-17 10:31N 53°19' E 007°02'0 0.1
2014-Jul-17 09:31N 53°19' E 007°02'0 0.1
2014-Jul-17 08:28N 53°19' E 007°02'0 0.0
2014-Jul-17 07:28N 53°19' E 007°02'4 4.4
2014-Jul-17 06:33N 53°23' E 006°58'7 6.6
2014-Jul-17 05:33N 53°28' E 006°51'7 6.7
2014-Jul-17 04:31N 53°32' E 006°43'7 6.4
2014-Jul-17 03:27N 53°37' E 006°33'6 6.7
2014-Jul-17 02:32N 53°37' E 006°23'7 7.0
2014-Jul-17 01:33N 53°38' E 006°11'4 4.0
2014-Jul-17 00:33N 53°40' E 006°05'7 7.5
2014-Jul-16 23:33N 53°38' E 005°53'9 8.6
2014-Jul-16 22:33N 53°36' E 005°39'9 9.1
2014-Jul-16 21:33N 53°33' E 005°25'9 9.2
2014-Jul-16 20:33N 53°30' E 005°10'9 9.4
2014-Jul-16 19:33N 53°26' E 004°56'27 8.4
2014-Jul-16 16:23N 53°06' E 004°27'7 8.4
2014-Jul-16 15:33N 53°00' E 004°21'9 8.6
2014-Jul-16 14:32N 52°52' E 004°14'8 8.3
2014-Jul-16 13:33N 52°45' E 004°08'8 8.0
2014-Jul-16 12:33N 52°38' E 004°01'8 7.6
2014-Jul-16 11:33N 52°32' E 003°56'8 7.5
2014-Jul-16 10:28N 52°23' E 003°53'9 7.3
2014-Jul-16 09:12N 52°14' E 003°53'6 8.0
2014-Jul-16 08:30N 52°09' E 003°55'7 7.5
2014-Jul-16 07:33N 52°02' E 003°59'9 9.0
2014-Jul-16 06:33N 51°57' E 004°11'8 8.2
2014-Jul-16 05:33N 51°54' E 004°23'3 3.1
2014-Jul-16 04:33N 51°54' E 004°28'4 4.1
2014-Jul-16 03:33N 51°54' E 004°35'6 6.2
2014-Jul-16 02:34N 51°49' E 004°41'8 7.9
2014-Jul-16 01:33N 51°50' E 004°54'1110.7
2014-Jul-16 00:33N 51°49' E 005°11'9 8.9
2014-Jul-15 23:33N 51°52' E 005°25'1110.1
2014-Jul-15 22:30N 51°54' E 005°42'21 0.5
2014-Jul-14 02:29N 51°49' E 006°16'16 3.9
2014-Jul-13 22:24N 51°52' E 005°50'6 5.0
2014-Jul-13 21:13N 51°54' E 005°41'3 5.1
2014-Jul-13 20:33N 51°54' E 005°36'5 4.8
2014-Jul-13 19:33N 51°53' E 005°28'5 4.7
2014-Jul-13 18:33N 51°50' E 005°23'4 3.5
2014-Jul-13 17:34N 51°49' E 005°18'5 4.8
2014-Jul-13 16:33N 51°49' E 005°10'5 5.2
2014-Jul-13 15:34N 51°49' E 005°01'6 6.4
2014-Jul-13 14:33N 51°49' E 004°51'7 6.6
2014-Jul-13 13:34N 51°49' E 004°40'6 6.1
2014-Jul-13 12:30N 51°54' E 004°34'3 3.6
2014-Jul-13 11:33N 51°54' E 004°28'6 5.8
2014-Jul-13 10:33N 51°54' E 004°19'6 6.3
2014-Jul-13 09:33N 51°57' E 004°10'6 6.0
2014-Jul-13 08:32N 51°60' E 004°01'62 8.8
2014-Jul-13 01:32N 51°37' E 002°28'1111.1
2014-Jul-13 00:33N 51°29' E 002°17'1210.5
2014-Jul-12 23:25N 51°19' E 002°07'910.5
2014-Jul-12 22:33N 51°12' E 001°58'10 9.8
2014-Jul-12 21:33N 51°06' E 001°46'8 8.3
2014-Jul-12 20:33N 50°60' E 001°37'  
Track history (hours):
 
Tides and Currents Weather Stations Pressure Air Temp Water Temp Dewpoint Dewpoint Depression Visibility Wind Speed Wind Dir Waves Ship Positions

Sea Thames

Last reported at 2014-Jul-20 09:29 UTC. Time now 2014-Jul-24 08:27 UTC.
Position N 53°13' E 007°27'.

Length 87 m; draft 2.8 m.

Type: Ship. MMSI: 304933000.

Date/timePositionNaut miles runAvg speedWind from/ knotsBaromVisibWave heightAir tempDewpointWater temp
2014-Jul-20 09:29N 53°13' E 007°27'0 0.0
2014-Jul-20 07:19N 53°13' E 007°27'0 0.0
2014-Jul-19 15:28N 53°13' E 007°27'0 0.0
2014-Jul-19 14:07N 53°13' E 007°27'0 0.0
2014-Jul-19 13:31N 53°13' E 007°27'0 0.0
2014-Jul-19 12:28N 53°13' E 007°27'0 0.0
2014-Jul-19 11:22N 53°13' E 007°27'0 0.0
2014-Jul-19 09:16N 53°13' E 007°27'0 0.0
2014-Jul-19 08:28N 53°13' E 007°27'0 0.0
2014-Jul-19 07:28N 53°13' E 007°27'0 0.0
2014-Jul-19 06:31N 53°13' E 007°27'0 0.0
2014-Jul-19 04:31N 53°13' E 007°27'0 0.0
2014-Jul-19 03:31N 53°13' E 007°27'0 0.0
2014-Jul-19 02:28N 53°13' E 007°27'0 0.0
2014-Jul-19 01:25N 53°13' E 007°27'0 0.0
2014-Jul-19 00:31N 53°13' E 007°27'0 0.0
2014-Jul-18 23:31N 53°13' E 007°27'0 0.0
2014-Jul-18 22:10N 53°13' E 007°27'0 0.0
2014-Jul-18 21:31N 53°13' E 007°27'0 0.0
2014-Jul-18 20:19N 53°13' E 007°27'0 0.0
2014-Jul-18 08:31N 53°13' E 007°27'0 0.0
2014-Jul-18 06:31N 53°13' E 007°27'0 0.0
2014-Jul-18 03:10N 53°13' E 007°27'0 0.0
2014-Jul-18 02:24N 53°13' E 007°27'0 0.0
2014-Jul-18 01:32N 53°13' E 007°27'0 0.0
2014-Jul-18 00:33N 53°13' E 007°27'0 0.0
2014-Jul-17 23:34N 53°13' E 007°27'0 0.0
2014-Jul-17 22:33N 53°13' E 007°27'0 0.0
2014-Jul-17 21:33N 53°13' E 007°27'0 0.0
2014-Jul-17 17:22N 53°13' E 007°27'2 0.8
2014-Jul-17 14:21N 53°14' E 007°24'6 7.9
2014-Jul-17 13:34N 53°19' E 007°18'9 9.2
2014-Jul-17 12:34N 53°19' E 007°03'0 0.5
2014-Jul-17 11:31N 53°19' E 007°02'0 0.0
2014-Jul-17 10:31N 53°19' E 007°02'0 0.1
2014-Jul-17 09:31N 53°19' E 007°02'0 0.1
2014-Jul-17 08:28N 53°19' E 007°02'0 0.0
2014-Jul-17 07:28N 53°19' E 007°02'4 4.4
2014-Jul-17 06:33N 53°23' E 006°58'7 6.6
2014-Jul-17 05:33N 53°28' E 006°51'7 6.7
2014-Jul-17 04:31N 53°32' E 006°43'7 6.4
2014-Jul-17 03:27N 53°37' E 006°33'6 6.7
2014-Jul-17 02:32N 53°37' E 006°23'7 7.0
2014-Jul-17 01:33N 53°38' E 006°11'4 4.0
2014-Jul-17 00:33N 53°40' E 006°05'7 7.5
2014-Jul-16 23:33N 53°38' E 005°53'9 8.6
2014-Jul-16 22:33N 53°36' E 005°39'9 9.1
2014-Jul-16 21:33N 53°33' E 005°25'9 9.2
2014-Jul-16 20:33N 53°30' E 005°10'9 9.4
2014-Jul-16 19:33N 53°26' E 004°56'27 8.4
2014-Jul-16 16:23N 53°06' E 004°27'7 8.4
2014-Jul-16 15:33N 53°00' E 004°21'9 8.6
2014-Jul-16 14:32N 52°52' E 004°14'8 8.3
2014-Jul-16 13:33N 52°45' E 004°08'8 8.0
2014-Jul-16 12:33N 52°38' E 004°01'8 7.6
2014-Jul-16 11:33N 52°32' E 003°56'8 7.5
2014-Jul-16 10:28N 52°23' E 003°53'9 7.3
2014-Jul-16 09:12N 52°14' E 003°53'6 8.0
2014-Jul-16 08:30N 52°09' E 003°55'7 7.5
2014-Jul-16 07:33N 52°02' E 003°59'9 9.0
2014-Jul-16 06:33N 51°57' E 004°11'8 8.2
2014-Jul-16 05:33N 51°54' E 004°23'3 3.1
2014-Jul-16 04:33N 51°54' E 004°28'4 4.1
2014-Jul-16 03:33N 51°54' E 004°35'6 6.2
2014-Jul-16 02:34N 51°49' E 004°41'8 7.9
2014-Jul-16 01:33N 51°50' E 004°54'1110.7
2014-Jul-16 00:33N 51°49' E 005°11'9 8.9
2014-Jul-15 23:33N 51°52' E 005°25'1110.1
2014-Jul-15 22:30N 51°54' E 005°42'21 0.5
2014-Jul-14 02:29N 51°49' E 006°16'16 3.9
2014-Jul-13 22:24N 51°52' E 005°50'6 5.0
2014-Jul-13 21:13N 51°54' E 005°41'3 5.1
2014-Jul-13 20:33N 51°54' E 005°36'5 4.8
2014-Jul-13 19:33N 51°53' E 005°28'5 4.7
2014-Jul-13 18:33N 51°50' E 005°23'4 3.5
2014-Jul-13 17:34N 51°49' E 005°18'5 4.8
2014-Jul-13 16:33N 51°49' E 005°10'5 5.2
2014-Jul-13 15:34N 51°49' E 005°01'6 6.4
2014-Jul-13 14:33N 51°49' E 004°51'7 6.6
2014-Jul-13 13:34N 51°49' E 004°40'6 6.1
2014-Jul-13 12:30N 51°54' E 004°34'3 3.6
2014-Jul-13 11:33N 51°54' E 004°28'6 5.8
2014-Jul-13 10:33N 51°54' E 004°19'6 6.3
2014-Jul-13 09:33N 51°57' E 004°10'6 6.0
2014-Jul-13 08:32N 51°60' E 004°01'62 8.8
2014-Jul-13 01:32N 51°37' E 002°28'1111.1
2014-Jul-13 00:33N 51°29' E 002°17'1210.5
2014-Jul-12 23:25N 51°19' E 002°07'910.5
2014-Jul-12 22:33N 51°12' E 001°58'10 9.8
2014-Jul-12 21:33N 51°06' E 001°46'8 8.3
2014-Jul-12 20:33N 50°60' E 001°37'  

Dump ship's entire track history